sensor_id;sensor_type;location;lat;lon;timestamp;P1;durP1;ratioP1;P2;durP2;ratioP2
8232;SDS011;4157;48.074;9.952;2023-09-08T00:02:24;8.55;;;5.63;;
8232;SDS011;4157;48.074;9.952;2023-09-08T00:04:53;9.55;;;6.20;;
8232;SDS011;4157;48.074;9.952;2023-09-08T00:07:21;9.02;;;6.15;;
8232;SDS011;4157;48.074;9.952;2023-09-08T00:09:49;8.25;;;5.53;;
8232;SDS011;4157;48.074;9.952;2023-09-08T00:12:16;10.35;;;6.10;;
8232;SDS011;4157;48.074;9.952;2023-09-08T00:14:44;7.97;;;5.10;;
8232;SDS011;4157;48.074;9.952;2023-09-08T00:17:12;7.57;;;5.07;;
8232;SDS011;4157;48.074;9.952;2023-09-08T00:19:39;8.57;;;5.03;;
8232;SDS011;4157;48.074;9.952;2023-09-08T00:22:08;9.13;;;5.40;;
8232;SDS011;4157;48.074;9.952;2023-09-08T00:24:36;8.13;;;5.30;;
8232;SDS011;4157;48.074;9.952;2023-09-08T00:27:04;8.98;;;5.45;;
8232;SDS011;4157;48.074;9.952;2023-09-08T00:29:32;7.38;;;5.13;;
8232;SDS011;4157;48.074;9.952;2023-09-08T00:32:00;7.22;;;5.80;;
8232;SDS011;4157;48.074;9.952;2023-09-08T00:34:27;8.60;;;5.88;;
8232;SDS011;4157;48.074;9.952;2023-09-08T00:36:55;8.32;;;5.40;;
8232;SDS011;4157;48.074;9.952;2023-09-08T00:39:24;7.82;;;5.43;;
8232;SDS011;4157;48.074;9.952;2023-09-08T00:41:52;7.20;;;5.82;;
8232;SDS011;4157;48.074;9.952;2023-09-08T00:44:19;8.18;;;6.03;;
8232;SDS011;4157;48.074;9.952;2023-09-08T00:46:47;10.00;;;6.10;;
8232;SDS011;4157;48.074;9.952;2023-09-08T00:49:15;7.88;;;5.90;;
8232;SDS011;4157;48.074;9.952;2023-09-08T00:51:42;8.50;;;6.05;;
8232;SDS011;4157;48.074;9.952;2023-09-08T00:54:10;10.90;;;6.35;;
8232;SDS011;4157;48.074;9.952;2023-09-08T00:56:39;9.02;;;6.25;;
8232;SDS011;4157;48.074;9.952;2023-09-08T00:59:07;7.75;;;5.60;;
8232;SDS011;4157;48.074;9.952;2023-09-08T01:01:35;8.35;;;5.80;;
8232;SDS011;4157;48.074;9.952;2023-09-08T01:04:03;6.75;;;5.47;;
8232;SDS011;4157;48.074;9.952;2023-09-08T01:06:30;6.75;;;5.07;;
8232;SDS011;4157;48.074;9.952;2023-09-08T01:08:59;8.15;;;5.45;;
8232;SDS011;4157;48.074;9.952;2023-09-08T01:11:28;8.02;;;6.15;;
8232;SDS011;4157;48.074;9.952;2023-09-08T01:13:57;7.47;;;5.65;;
8232;SDS011;4157;48.074;9.952;2023-09-08T01:16:25;7.97;;;5.35;;
8232;SDS011;4157;48.074;9.952;2023-09-08T01:18:53;7.97;;;5.38;;
8232;SDS011;4157;48.074;9.952;2023-09-08T01:21:31;8.38;;;5.95;;
8232;SDS011;4157;48.074;9.952;2023-09-08T01:24:06;6.68;;;5.22;;
8232;SDS011;4157;48.074;9.952;2023-09-08T01:26:40;7.80;;;5.40;;
8232;SDS011;4157;48.074;9.952;2023-09-08T01:29:08;8.00;;;5.70;;
8232;SDS011;4157;48.074;9.952;2023-09-08T01:31:37;7.70;;;5.35;;
8232;SDS011;4157;48.074;9.952;2023-09-08T01:34:05;8.88;;;5.95;;
8232;SDS011;4157;48.074;9.952;2023-09-08T01:36:33;8.82;;;5.65;;
8232;SDS011;4157;48.074;9.952;2023-09-08T01:39:01;7.47;;;5.40;;
8232;SDS011;4157;48.074;9.952;2023-09-08T01:41:29;9.75;;;5.63;;
8232;SDS011;4157;48.074;9.952;2023-09-08T01:43:58;8.77;;;5.32;;
8232;SDS011;4157;48.074;9.952;2023-09-08T01:46:26;7.47;;;5.45;;
8232;SDS011;4157;48.074;9.952;2023-09-08T01:48:54;8.02;;;5.80;;
8232;SDS011;4157;48.074;9.952;2023-09-08T01:51:22;7.53;;;5.63;;
8232;SDS011;4157;48.074;9.952;2023-09-08T01:53:49;7.20;;;5.22;;
8232;SDS011;4157;48.074;9.952;2023-09-08T01:56:17;8.35;;;5.50;;
8232;SDS011;4157;48.074;9.952;2023-09-08T01:58:46;7.43;;;5.53;;
8232;SDS011;4157;48.074;9.952;2023-09-08T02:01:15;8.32;;;5.75;;
8232;SDS011;4157;48.074;9.952;2023-09-08T02:03:42;8.43;;;6.05;;
8232;SDS011;4157;48.074;9.952;2023-09-08T02:06:10;8.45;;;5.80;;
8232;SDS011;4157;48.074;9.952;2023-09-08T02:08:38;7.35;;;5.75;;
8232;SDS011;4157;48.074;9.952;2023-09-08T02:11:06;8.05;;;5.30;;
8232;SDS011;4157;48.074;9.952;2023-09-08T02:13:34;8.85;;;5.50;;
8232;SDS011;4157;48.074;9.952;2023-09-08T02:16:01;7.40;;;5.07;;
8232;SDS011;4157;48.074;9.952;2023-09-08T02:18:30;8.27;;;5.40;;
8232;SDS011;4157;48.074;9.952;2023-09-08T02:20:58;8.18;;;5.88;;
8232;SDS011;4157;48.074;9.952;2023-09-08T02:23:26;7.78;;;5.93;;
8232;SDS011;4157;48.074;9.952;2023-09-08T02:25:54;9.15;;;5.68;;
8232;SDS011;4157;48.074;9.952;2023-09-08T02:28:21;7.32;;;5.45;;
8232;SDS011;4157;48.074;9.952;2023-09-08T02:30:51;9.48;;;6.05;;
8232;SDS011;4157;48.074;9.952;2023-09-08T02:33:20;7.95;;;5.40;;
8232;SDS011;4157;48.074;9.952;2023-09-08T02:35:49;7.45;;;5.60;;
8232;SDS011;4157;48.074;9.952;2023-09-08T02:38:18;8.45;;;5.50;;
8232;SDS011;4157;48.074;9.952;2023-09-08T02:40:47;8.75;;;6.10;;
8232;SDS011;4157;48.074;9.952;2023-09-08T02:43:14;8.52;;;5.90;;
8232;SDS011;4157;48.074;9.952;2023-09-08T02:45:42;8.68;;;5.93;;
8232;SDS011;4157;48.074;9.952;2023-09-08T02:48:10;7.95;;;5.63;;
8232;SDS011;4157;48.074;9.952;2023-09-08T02:50:37;8.32;;;5.85;;
8232;SDS011;4157;48.074;9.952;2023-09-08T02:53:07;8.30;;;6.00;;
8232;SDS011;4157;48.074;9.952;2023-09-08T02:55:34;10.15;;;5.68;;
8232;SDS011;4157;48.074;9.952;2023-09-08T02:58:03;7.82;;;5.85;;
8232;SDS011;4157;48.074;9.952;2023-09-08T03:00:30;9.02;;;5.93;;
8232;SDS011;4157;48.074;9.952;2023-09-08T03:02:58;9.57;;;5.75;;
8232;SDS011;4157;48.074;9.952;2023-09-08T03:05:26;9.18;;;5.78;;
8232;SDS011;4157;48.074;9.952;2023-09-08T03:07:54;8.15;;;6.10;;
8232;SDS011;4157;48.074;9.952;2023-09-08T03:10:23;9.52;;;6.00;;
8232;SDS011;4157;48.074;9.952;2023-09-08T03:12:50;7.63;;;5.90;;
8232;SDS011;4157;48.074;9.952;2023-09-08T03:15:18;9.75;;;6.30;;
8232;SDS011;4157;48.074;9.952;2023-09-08T03:17:47;7.45;;;5.97;;
8232;SDS011;4157;48.074;9.952;2023-09-08T03:20:14;8.07;;;5.78;;
8232;SDS011;4157;48.074;9.952;2023-09-08T03:22:42;8.35;;;5.85;;
8232;SDS011;4157;48.074;9.952;2023-09-08T03:25:10;9.95;;;6.97;;
8232;SDS011;4157;48.074;9.952;2023-09-08T03:27:39;10.43;;;7.07;;
8232;SDS011;4157;48.074;9.952;2023-09-08T03:30:07;9.02;;;6.90;;
8232;SDS011;4157;48.074;9.952;2023-09-08T03:32:35;8.02;;;6.57;;
8232;SDS011;4157;48.074;9.952;2023-09-08T03:35:03;9.32;;;6.45;;
8232;SDS011;4157;48.074;9.952;2023-09-08T03:37:33;7.97;;;6.50;;
8232;SDS011;4157;48.074;9.952;2023-09-08T03:40:01;9.45;;;6.00;;
8232;SDS011;4157;48.074;9.952;2023-09-08T03:42:30;8.65;;;6.70;;
8232;SDS011;4157;48.074;9.952;2023-09-08T03:44:59;8.98;;;5.68;;
8232;SDS011;4157;48.074;9.952;2023-09-08T03:47:27;8.80;;;6.18;;
8232;SDS011;4157;48.074;9.952;2023-09-08T03:49:55;7.72;;;6.05;;
8232;SDS011;4157;48.074;9.952;2023-09-08T03:52:24;10.48;;;6.45;;
8232;SDS011;4157;48.074;9.952;2023-09-08T03:54:52;7.50;;;6.03;;
8232;SDS011;4157;48.074;9.952;2023-09-08T03:57:19;9.38;;;6.78;;
8232;SDS011;4157;48.074;9.952;2023-09-08T03:59:47;10.68;;;6.50;;
8232;SDS011;4157;48.074;9.952;2023-09-08T04:02:16;8.25;;;6.93;;
8232;SDS011;4157;48.074;9.952;2023-09-08T04:04:44;10.15;;;6.97;;
8232;SDS011;4157;48.074;9.952;2023-09-08T04:07:12;8.50;;;6.65;;
8232;SDS011;4157;48.074;9.952;2023-09-08T04:09:39;8.45;;;6.22;;
8232;SDS011;4157;48.074;9.952;2023-09-08T04:12:08;8.60;;;6.60;;
8232;SDS011;4157;48.074;9.952;2023-09-08T04:14:36;10.35;;;6.63;;
8232;SDS011;4157;48.074;9.952;2023-09-08T04:17:04;7.88;;;6.07;;
8232;SDS011;4157;48.074;9.952;2023-09-08T04:19:33;8.13;;;6.60;;
8232;SDS011;4157;48.074;9.952;2023-09-08T04:22:01;8.10;;;6.15;;
8232;SDS011;4157;48.074;9.952;2023-09-08T04:24:29;7.60;;;6.43;;
8232;SDS011;4157;48.074;9.952;2023-09-08T04:26:56;9.20;;;6.28;;
8232;SDS011;4157;48.074;9.952;2023-09-08T04:29:24;9.85;;;6.38;;
8232;SDS011;4157;48.074;9.952;2023-09-08T04:31:52;9.93;;;6.68;;
8232;SDS011;4157;48.074;9.952;2023-09-08T04:34:19;8.43;;;6.55;;
8232;SDS011;4157;48.074;9.952;2023-09-08T04:36:49;8.57;;;5.88;;
8232;SDS011;4157;48.074;9.952;2023-09-08T04:39:17;10.07;;;6.25;;
8232;SDS011;4157;48.074;9.952;2023-09-08T04:41:45;8.77;;;6.57;;
8232;SDS011;4157;48.074;9.952;2023-09-08T04:44:12;8.93;;;6.53;;
8232;SDS011;4157;48.074;9.952;2023-09-08T04:46:40;8.65;;;6.85;;
8232;SDS011;4157;48.074;9.952;2023-09-08T04:49:08;8.27;;;6.78;;
8232;SDS011;4157;48.074;9.952;2023-09-08T04:51:36;8.70;;;6.78;;
8232;SDS011;4157;48.074;9.952;2023-09-08T04:54:05;9.88;;;6.55;;
8232;SDS011;4157;48.074;9.952;2023-09-08T04:56:33;9.43;;;6.90;;
8232;SDS011;4157;48.074;9.952;2023-09-08T04:59:00;8.68;;;6.63;;
8232;SDS011;4157;48.074;9.952;2023-09-08T05:01:28;7.30;;;6.40;;
8232;SDS011;4157;48.074;9.952;2023-09-08T05:03:58;8.82;;;6.43;;
8232;SDS011;4157;48.074;9.952;2023-09-08T05:06:27;10.18;;;6.45;;
8232;SDS011;4157;48.074;9.952;2023-09-08T05:08:54;8.07;;;6.95;;
8232;SDS011;4157;48.074;9.952;2023-09-08T05:11:25;8.98;;;6.70;;
8232;SDS011;4157;48.074;9.952;2023-09-08T05:13:53;11.15;;;6.28;;
8232;SDS011;4157;48.074;9.952;2023-09-08T05:16:21;8.60;;;6.20;;
8232;SDS011;4157;48.074;9.952;2023-09-08T05:19:02;8.25;;;7.03;;
8232;SDS011;4157;48.074;9.952;2023-09-08T05:21:33;7.72;;;6.53;;
8232;SDS011;4157;48.074;9.952;2023-09-08T05:24:03;8.55;;;7.28;;
8232;SDS011;4157;48.074;9.952;2023-09-08T05:26:32;8.20;;;6.35;;
8232;SDS011;4157;48.074;9.952;2023-09-08T05:29:00;10.80;;;6.85;;
8232;SDS011;4157;48.074;9.952;2023-09-08T05:31:28;8.98;;;7.10;;
8232;SDS011;4157;48.074;9.952;2023-09-08T05:33:55;7.72;;;6.03;;
8232;SDS011;4157;48.074;9.952;2023-09-08T05:36:23;9.13;;;6.60;;
8232;SDS011;4157;48.074;9.952;2023-09-08T05:38:51;10.52;;;7.25;;
8232;SDS011;4157;48.074;9.952;2023-09-08T05:41:19;9.90;;;7.15;;
8232;SDS011;4157;48.074;9.952;2023-09-08T05:43:49;8.75;;;6.75;;
8232;SDS011;4157;48.074;9.952;2023-09-08T05:46:16;8.40;;;7.13;;
8232;SDS011;4157;48.074;9.952;2023-09-08T05:48:45;11.40;;;7.60;;
8232;SDS011;4157;48.074;9.952;2023-09-08T05:51:13;8.75;;;7.22;;
8232;SDS011;4157;48.074;9.952;2023-09-08T05:53:42;11.55;;;7.75;;
8232;SDS011;4157;48.074;9.952;2023-09-08T05:56:10;11.43;;;8.50;;
8232;SDS011;4157;48.074;9.952;2023-09-08T05:58:40;8.88;;;7.95;;
8232;SDS011;4157;48.074;9.952;2023-09-08T06:01:10;11.65;;;9.27;;
8232;SDS011;4157;48.074;9.952;2023-09-08T06:03:38;11.18;;;8.50;;
8232;SDS011;4157;48.074;9.952;2023-09-08T06:06:06;10.90;;;8.48;;
8232;SDS011;4157;48.074;9.952;2023-09-08T06:08:34;11.25;;;9.35;;
8232;SDS011;4157;48.074;9.952;2023-09-08T06:11:02;11.38;;;9.02;;
8232;SDS011;4157;48.074;9.952;2023-09-08T06:13:31;11.38;;;9.45;;
8232;SDS011;4157;48.074;9.952;2023-09-08T06:15:59;10.82;;;9.13;;
8232;SDS011;4157;48.074;9.952;2023-09-08T06:18:28;10.23;;;9.13;;
8232;SDS011;4157;48.074;9.952;2023-09-08T06:20:57;11.98;;;10.50;;
8232;SDS011;4157;48.074;9.952;2023-09-08T06:23:25;11.15;;;10.05;;
8232;SDS011;4157;48.074;9.952;2023-09-08T06:25:56;13.68;;;10.98;;
8232;SDS011;4157;48.074;9.952;2023-09-08T06:28:26;12.40;;;11.07;;
8232;SDS011;4157;48.074;9.952;2023-09-08T06:30:53;14.93;;;11.30;;
8232;SDS011;4157;48.074;9.952;2023-09-08T06:33:21;13.45;;;12.05;;
8232;SDS011;4157;48.074;9.952;2023-09-08T06:35:50;13.55;;;11.73;;
8232;SDS011;4157;48.074;9.952;2023-09-08T06:38:19;11.73;;;10.52;;
8232;SDS011;4157;48.074;9.952;2023-09-08T06:40:47;14.52;;;11.70;;
8232;SDS011;4157;48.074;9.952;2023-09-08T06:43:15;15.77;;;12.07;;
8232;SDS011;4157;48.074;9.952;2023-09-08T06:45:56;13.88;;;12.13;;
8232;SDS011;4157;48.074;9.952;2023-09-08T06:48:25;13.75;;;10.68;;
8232;SDS011;4157;48.074;9.952;2023-09-08T06:50:55;12.90;;;10.90;;
8232;SDS011;4157;48.074;9.952;2023-09-08T06:53:23;18.00;;;13.10;;
8232;SDS011;4157;48.074;9.952;2023-09-08T06:55:51;13.77;;;12.07;;
8232;SDS011;4157;48.074;9.952;2023-09-08T06:58:19;19.25;;;13.73;;
8232;SDS011;4157;48.074;9.952;2023-09-08T07:00:47;15.02;;;13.23;;
8232;SDS011;4157;48.074;9.952;2023-09-08T07:03:19;18.50;;;14.80;;
8232;SDS011;4157;48.074;9.952;2023-09-08T07:05:47;16.45;;;14.18;;
8232;SDS011;4157;48.074;9.952;2023-09-08T07:08:16;17.00;;;14.85;;
8232;SDS011;4157;48.074;9.952;2023-09-08T07:10:45;17.15;;;15.32;;
8232;SDS011;4157;48.074;9.952;2023-09-08T07:13:13;18.35;;;14.90;;
8232;SDS011;4157;48.074;9.952;2023-09-08T07:15:40;19.00;;;15.65;;
8232;SDS011;4157;48.074;9.952;2023-09-08T07:18:08;23.00;;;14.98;;
8232;SDS011;4157;48.074;9.952;2023-09-08T07:20:36;20.05;;;14.98;;
8232;SDS011;4157;48.074;9.952;2023-09-08T07:23:04;20.60;;;15.05;;
8232;SDS011;4157;48.074;9.952;2023-09-08T07:25:33;16.48;;;14.77;;
8232;SDS011;4157;48.074;9.952;2023-09-08T07:28:01;19.98;;;16.13;;
8232;SDS011;4157;48.074;9.952;2023-09-08T07:30:28;24.63;;;16.75;;
8232;SDS011;4157;48.074;9.952;2023-09-08T07:32:59;18.25;;;14.55;;
8232;SDS011;4157;48.074;9.952;2023-09-08T07:35:27;21.77;;;15.30;;
8232;SDS011;4157;48.074;9.952;2023-09-08T07:37:55;19.20;;;15.25;;
8232;SDS011;4157;48.074;9.952;2023-09-08T07:40:22;17.00;;;14.95;;
8232;SDS011;4157;48.074;9.952;2023-09-08T07:42:51;16.80;;;15.10;;
8232;SDS011;4157;48.074;9.952;2023-09-08T07:45:19;16.75;;;14.80;;
8232;SDS011;4157;48.074;9.952;2023-09-08T07:47:47;17.52;;;15.02;;
8232;SDS011;4157;48.074;9.952;2023-09-08T07:50:15;18.23;;;16.33;;
8232;SDS011;4157;48.074;9.952;2023-09-08T07:52:43;17.45;;;15.65;;
8232;SDS011;4157;48.074;9.952;2023-09-08T07:55:11;16.88;;;15.07;;
8232;SDS011;4157;48.074;9.952;2023-09-08T07:57:39;16.77;;;14.55;;
8232;SDS011;4157;48.074;9.952;2023-09-08T08:00:08;16.15;;;14.38;;
8232;SDS011;4157;48.074;9.952;2023-09-08T08:02:41;15.77;;;13.85;;
8232;SDS011;4157;48.074;9.952;2023-09-08T08:05:09;16.70;;;14.93;;
8232;SDS011;4157;48.074;9.952;2023-09-08T08:07:37;17.48;;;14.23;;
8232;SDS011;4157;48.074;9.952;2023-09-08T08:10:06;17.70;;;14.73;;
8232;SDS011;4157;48.074;9.952;2023-09-08T08:12:34;21.20;;;14.38;;
8232;SDS011;4157;48.074;9.952;2023-09-08T08:15:01;17.08;;;13.88;;
8232;SDS011;4157;48.074;9.952;2023-09-08T08:17:31;17.30;;;15.07;;
8232;SDS011;4157;48.074;9.952;2023-09-08T08:19:59;17.88;;;14.32;;
8232;SDS011;4157;48.074;9.952;2023-09-08T08:22:32;17.88;;;14.50;;
8232;SDS011;4157;48.074;9.952;2023-09-08T08:25:00;14.32;;;12.82;;
8232;SDS011;4157;48.074;9.952;2023-09-08T08:27:29;15.82;;;13.82;;
8232;SDS011;4157;48.074;9.952;2023-09-08T08:29:57;15.60;;;13.63;;
8232;SDS011;4157;48.074;9.952;2023-09-08T08:32:32;15.60;;;12.88;;
8232;SDS011;4157;48.074;9.952;2023-09-08T08:35:00;18.45;;;14.60;;
8232;SDS011;4157;48.074;9.952;2023-09-08T08:37:29;18.00;;;14.50;;
8232;SDS011;4157;48.074;9.952;2023-09-08T08:39:56;24.08;;;14.35;;
8232;SDS011;4157;48.074;9.952;2023-09-08T08:42:24;17.88;;;13.90;;
8232;SDS011;4157;48.074;9.952;2023-09-08T08:44:58;15.60;;;13.90;;
8232;SDS011;4157;48.074;9.952;2023-09-08T08:47:25;13.60;;;11.73;;
8232;SDS011;4157;48.074;9.952;2023-09-08T08:49:56;14.23;;;12.65;;
8232;SDS011;4157;48.074;9.952;2023-09-08T08:52:25;13.85;;;12.38;;
8232;SDS011;4157;48.074;9.952;2023-09-08T08:54:52;17.48;;;12.95;;
8232;SDS011;4157;48.074;9.952;2023-09-08T08:57:20;15.10;;;12.52;;
8232;SDS011;4157;48.074;9.952;2023-09-08T08:59:49;15.48;;;13.82;;
8232;SDS011;4157;48.074;9.952;2023-09-08T09:02:18;14.52;;;12.98;;
8232;SDS011;4157;48.074;9.952;2023-09-08T09:04:45;14.02;;;12.45;;
8232;SDS011;4157;48.074;9.952;2023-09-08T09:07:15;15.63;;;13.10;;
8232;SDS011;4157;48.074;9.952;2023-09-08T09:09:45;14.80;;;12.60;;
8232;SDS011;4157;48.074;9.952;2023-09-08T09:12:13;15.35;;;13.35;;
8232;SDS011;4157;48.074;9.952;2023-09-08T09:14:44;13.98;;;12.48;;
8232;SDS011;4157;48.074;9.952;2023-09-08T09:17:13;14.65;;;11.90;;
8232;SDS011;4157;48.074;9.952;2023-09-08T09:19:41;14.65;;;12.60;;
8232;SDS011;4157;48.074;9.952;2023-09-08T09:22:08;13.10;;;11.75;;
8232;SDS011;4157;48.074;9.952;2023-09-08T09:24:38;13.50;;;12.05;;
8232;SDS011;4157;48.074;9.952;2023-09-08T09:27:09;13.52;;;12.13;;
8232;SDS011;4157;48.074;9.952;2023-09-08T09:29:43;16.70;;;12.00;;
8232;SDS011;4157;48.074;9.952;2023-09-08T09:32:12;12.52;;;10.25;;
8232;SDS011;4157;48.074;9.952;2023-09-08T09:34:47;12.93;;;10.68;;
8232;SDS011;4157;48.074;9.952;2023-09-08T09:37:15;15.35;;;9.90;;
8232;SDS011;4157;48.074;9.952;2023-09-08T09:39:45;12.18;;;10.75;;
8232;SDS011;4157;48.074;9.952;2023-09-08T09:42:15;12.50;;;9.48;;
8232;SDS011;4157;48.074;9.952;2023-09-08T09:44:43;11.73;;;9.10;;
8232;SDS011;4157;48.074;9.952;2023-09-08T09:47:11;13.10;;;9.95;;
8232;SDS011;4157;48.074;9.952;2023-09-08T09:49:43;14.10;;;9.43;;
8232;SDS011;4157;48.074;9.952;2023-09-08T09:52:11;10.35;;;8.43;;
8232;SDS011;4157;48.074;9.952;2023-09-08T09:54:39;11.27;;;8.68;;
8232;SDS011;4157;48.074;9.952;2023-09-08T09:57:10;10.77;;;8.35;;
8232;SDS011;4157;48.074;9.952;2023-09-08T09:59:38;10.43;;;9.32;;
8232;SDS011;4157;48.074;9.952;2023-09-08T10:02:06;11.90;;;8.90;;
8232;SDS011;4157;48.074;9.952;2023-09-08T10:04:37;10.05;;;7.78;;
8232;SDS011;4157;48.074;9.952;2023-09-08T10:07:06;10.65;;;7.90;;
8232;SDS011;4157;48.074;9.952;2023-09-08T10:09:35;12.00;;;8.82;;
8232;SDS011;4157;48.074;9.952;2023-09-08T10:12:03;9.57;;;8.07;;
8232;SDS011;4157;48.074;9.952;2023-09-08T10:14:34;12.52;;;7.82;;
8232;SDS011;4157;48.074;9.952;2023-09-08T10:17:02;13.07;;;8.50;;
8232;SDS011;4157;48.074;9.952;2023-09-08T10:19:33;12.23;;;7.80;;
8232;SDS011;4157;48.074;9.952;2023-09-08T10:24:34;8.75;;;7.53;;
8232;SDS011;4157;48.074;9.952;2023-09-08T10:27:04;10.93;;;8.50;;
8232;SDS011;4157;48.074;9.952;2023-09-08T10:29:33;10.45;;;7.97;;
8232;SDS011;4157;48.074;9.952;2023-09-08T10:32:02;10.30;;;7.47;;
8232;SDS011;4157;48.074;9.952;2023-09-08T10:34:30;10.40;;;8.25;;
8232;SDS011;4157;48.074;9.952;2023-09-08T10:36:58;10.70;;;8.15;;
8232;SDS011;4157;48.074;9.952;2023-09-08T10:39:30;11.85;;;8.82;;
8232;SDS011;4157;48.074;9.952;2023-09-08T10:44:45;8.55;;;7.05;;
8232;SDS011;4157;48.074;9.952;2023-09-08T10:47:23;9.95;;;7.78;;
8232;SDS011;4157;48.074;9.952;2023-09-08T10:49:51;9.23;;;7.00;;
8232;SDS011;4157;48.074;9.952;2023-09-08T10:52:21;10.68;;;7.97;;
8232;SDS011;4157;48.074;9.952;2023-09-08T10:54:49;9.25;;;6.75;;
8232;SDS011;4157;48.074;9.952;2023-09-08T10:57:18;12.75;;;7.75;;
8232;SDS011;4157;48.074;9.952;2023-09-08T10:59:49;9.75;;;6.70;;
8232;SDS011;4157;48.074;9.952;2023-09-08T11:05:02;9.10;;;6.10;;
8232;SDS011;4157;48.074;9.952;2023-09-08T11:07:30;9.43;;;6.20;;
8232;SDS011;4157;48.074;9.952;2023-09-08T11:09:59;12.00;;;6.97;;
8232;SDS011;4157;48.074;9.952;2023-09-08T11:12:27;7.70;;;6.00;;
8232;SDS011;4157;48.074;9.952;2023-09-08T11:14:56;11.50;;;6.60;;
8232;SDS011;4157;48.074;9.952;2023-09-08T11:17:26;8.43;;;6.00;;
8232;SDS011;4157;48.074;9.952;2023-09-08T11:19:54;8.55;;;5.85;;
8232;SDS011;4157;48.074;9.952;2023-09-08T11:22:22;7.90;;;6.03;;
8232;SDS011;4157;48.074;9.952;2023-09-08T11:24:50;10.77;;;5.75;;
8232;SDS011;4157;48.074;9.952;2023-09-08T11:27:18;8.60;;;6.05;;
8232;SDS011;4157;48.074;9.952;2023-09-08T11:29:46;8.85;;;5.82;;
8232;SDS011;4157;48.074;9.952;2023-09-08T11:32:16;11.10;;;6.93;;
8232;SDS011;4157;48.074;9.952;2023-09-08T11:34:43;9.65;;;5.47;;
8232;SDS011;4157;48.074;9.952;2023-09-08T11:37:11;8.13;;;6.13;;
8232;SDS011;4157;48.074;9.952;2023-09-08T11:39:39;7.78;;;6.15;;
8232;SDS011;4157;48.074;9.952;2023-09-08T11:42:08;8.05;;;6.03;;
8232;SDS011;4157;48.074;9.952;2023-09-08T11:44:36;8.18;;;5.75;;
8232;SDS011;4157;48.074;9.952;2023-09-08T11:47:04;6.75;;;5.32;;
8232;SDS011;4157;48.074;9.952;2023-09-08T11:49:36;8.43;;;5.70;;
8232;SDS011;4157;48.074;9.952;2023-09-08T11:52:04;8.63;;;6.10;;
8232;SDS011;4157;48.074;9.952;2023-09-08T11:54:33;10.38;;;5.68;;
8232;SDS011;4157;48.074;9.952;2023-09-08T11:57:01;10.95;;;6.03;;
8232;SDS011;4157;48.074;9.952;2023-09-08T11:59:30;9.75;;;5.72;;
8232;SDS011;4157;48.074;9.952;2023-09-08T12:01:58;9.63;;;5.65;;
8232;SDS011;4157;48.074;9.952;2023-09-08T12:04:26;9.55;;;5.40;;
8232;SDS011;4157;48.074;9.952;2023-09-08T12:06:56;12.27;;;6.25;;
8232;SDS011;4157;48.074;9.952;2023-09-08T12:09:23;9.93;;;5.72;;
8232;SDS011;4157;48.074;9.952;2023-09-08T12:11:51;9.68;;;5.93;;
8232;SDS011;4157;48.074;9.952;2023-09-08T12:14:19;9.15;;;5.25;;
8232;SDS011;4157;48.074;9.952;2023-09-08T12:16:46;10.30;;;5.32;;
8232;SDS011;4157;48.074;9.952;2023-09-08T12:19:29;9.50;;;5.75;;
8232;SDS011;4157;48.074;9.952;2023-09-08T12:21:59;8.68;;;5.43;;
8232;SDS011;4157;48.074;9.952;2023-09-08T12:24:47;9.27;;;5.25;;
8232;SDS011;4157;48.074;9.952;2023-09-08T12:27:15;7.25;;;4.82;;
8232;SDS011;4157;48.074;9.952;2023-09-08T12:29:51;7.68;;;5.00;;
8232;SDS011;4157;48.074;9.952;2023-09-08T12:32:19;9.48;;;5.45;;
8232;SDS011;4157;48.074;9.952;2023-09-08T12:34:46;9.98;;;5.22;;
8232;SDS011;4157;48.074;9.952;2023-09-08T12:37:15;15.07;;;5.25;;
8232;SDS011;4157;48.074;9.952;2023-09-08T12:39:46;10.10;;;5.17;;
8232;SDS011;4157;48.074;9.952;2023-09-08T12:42:14;7.30;;;5.05;;
8232;SDS011;4157;48.074;9.952;2023-09-08T12:44:42;7.80;;;5.80;;
8232;SDS011;4157;48.074;9.952;2023-09-08T12:47:10;7.72;;;4.90;;
8232;SDS011;4157;48.074;9.952;2023-09-08T12:49:38;8.15;;;5.10;;
8232;SDS011;4157;48.074;9.952;2023-09-08T12:52:06;7.43;;;4.57;;
8232;SDS011;4157;48.074;9.952;2023-09-08T12:54:36;6.07;;;4.47;;
8232;SDS011;4157;48.074;9.952;2023-09-08T12:57:04;6.93;;;4.00;;
8232;SDS011;4157;48.074;9.952;2023-09-08T12:59:32;8.32;;;4.60;;
8232;SDS011;4157;48.074;9.952;2023-09-08T13:01:59;6.32;;;4.50;;
8232;SDS011;4157;48.074;9.952;2023-09-08T13:04:27;6.65;;;4.65;;
8232;SDS011;4157;48.074;9.952;2023-09-08T13:06:55;7.88;;;4.35;;
8232;SDS011;4157;48.074;9.952;2023-09-08T13:09:24;8.82;;;4.70;;
8232;SDS011;4157;48.074;9.952;2023-09-08T13:11:53;9.85;;;4.25;;
8232;SDS011;4157;48.074;9.952;2023-09-08T13:14:20;6.80;;;4.45;;
8232;SDS011;4157;48.074;9.952;2023-09-08T13:16:48;9.45;;;4.28;;
8232;SDS011;4157;48.074;9.952;2023-09-08T13:19:16;7.68;;;4.10;;
8232;SDS011;4157;48.074;9.952;2023-09-08T13:21:43;6.30;;;4.40;;
8232;SDS011;4157;48.074;9.952;2023-09-08T13:24:11;7.45;;;4.53;;
8232;SDS011;4157;48.074;9.952;2023-09-08T13:26:39;6.65;;;4.40;;
8232;SDS011;4157;48.074;9.952;2023-09-08T13:29:08;6.75;;;4.03;;
8232;SDS011;4157;48.074;9.952;2023-09-08T13:31:35;7.25;;;4.18;;
8232;SDS011;4157;48.074;9.952;2023-09-08T13:34:03;7.70;;;4.22;;
8232;SDS011;4157;48.074;9.952;2023-09-08T13:36:31;5.80;;;4.28;;
8232;SDS011;4157;48.074;9.952;2023-09-08T13:38:59;5.93;;;3.67;;
8232;SDS011;4157;48.074;9.952;2023-09-08T13:41:42;5.93;;;4.53;;
8232;SDS011;4157;48.074;9.952;2023-09-08T13:46:39;12.02;;;4.53;;
8232;SDS011;4157;48.074;9.952;2023-09-08T13:49:07;6.85;;;4.05;;
8232;SDS011;4157;48.074;9.952;2023-09-08T13:51:34;7.18;;;4.28;;
8232;SDS011;4157;48.074;9.952;2023-09-08T13:54:02;5.60;;;3.80;;
8232;SDS011;4157;48.074;9.952;2023-09-08T13:56:30;6.85;;;3.95;;
8232;SDS011;4157;48.074;9.952;2023-09-08T13:58:58;7.15;;;3.80;;
8232;SDS011;4157;48.074;9.952;2023-09-08T14:01:25;5.82;;;4.30;;
8232;SDS011;4157;48.074;9.952;2023-09-08T14:03:56;6.80;;;4.50;;
8232;SDS011;4157;48.074;9.952;2023-09-08T14:06:23;6.88;;;4.32;;
8232;SDS011;4157;48.074;9.952;2023-09-08T14:08:51;6.43;;;3.72;;
8232;SDS011;4157;48.074;9.952;2023-09-08T14:11:19;6.55;;;4.00;;
8232;SDS011;4157;48.074;9.952;2023-09-08T14:13:46;6.20;;;4.20;;
8232;SDS011;4157;48.074;9.952;2023-09-08T14:16:14;6.18;;;4.10;;
8232;SDS011;4157;48.074;9.952;2023-09-08T14:18:42;6.95;;;4.55;;
8232;SDS011;4157;48.074;9.952;2023-09-08T14:21:11;6.40;;;3.97;;
8232;SDS011;4157;48.074;9.952;2023-09-08T14:23:39;8.02;;;4.30;;
8232;SDS011;4157;48.074;9.952;2023-09-08T14:26:07;7.15;;;4.32;;
8232;SDS011;4157;48.074;9.952;2023-09-08T14:28:34;6.25;;;4.43;;
8232;SDS011;4157;48.074;9.952;2023-09-08T14:31:02;6.28;;;4.18;;
8232;SDS011;4157;48.074;9.952;2023-09-08T14:33:30;8.98;;;4.13;;
8232;SDS011;4157;48.074;9.952;2023-09-08T14:35:58;5.00;;;3.90;;
8232;SDS011;4157;48.074;9.952;2023-09-08T14:38:27;6.43;;;4.18;;
8232;SDS011;4157;48.074;9.952;2023-09-08T14:40:55;6.40;;;3.70;;
8232;SDS011;4157;48.074;9.952;2023-09-08T14:43:23;8.48;;;4.50;;
8232;SDS011;4157;48.074;9.952;2023-09-08T14:45:51;6.25;;;4.05;;
8232;SDS011;4157;48.074;9.952;2023-09-08T14:48:19;6.30;;;4.22;;
8232;SDS011;4157;48.074;9.952;2023-09-08T14:50:46;7.15;;;4.60;;
8232;SDS011;4157;48.074;9.952;2023-09-08T14:53:14;6.20;;;4.07;;
8232;SDS011;4157;48.074;9.952;2023-09-08T14:55:43;5.75;;;4.03;;
8232;SDS011;4157;48.074;9.952;2023-09-08T14:58:13;4.95;;;3.92;;
8232;SDS011;4157;48.074;9.952;2023-09-08T15:00:41;7.70;;;4.30;;
8232;SDS011;4157;48.074;9.952;2023-09-08T15:03:08;7.00;;;4.38;;
8232;SDS011;4157;48.074;9.952;2023-09-08T15:05:37;7.00;;;3.97;;
8232;SDS011;4157;48.074;9.952;2023-09-08T15:08:04;6.05;;;4.07;;
8232;SDS011;4157;48.074;9.952;2023-09-08T15:10:32;6.35;;;4.18;;
8232;SDS011;4157;48.074;9.952;2023-09-08T15:13:01;6.43;;;4.53;;
8232;SDS011;4157;48.074;9.952;2023-09-08T15:15:29;7.30;;;4.25;;
8232;SDS011;4157;48.074;9.952;2023-09-08T15:17:56;7.03;;;4.70;;
8232;SDS011;4157;48.074;9.952;2023-09-08T15:20:24;8.43;;;4.40;;
8232;SDS011;4157;48.074;9.952;2023-09-08T15:22:52;6.85;;;4.80;;
8232;SDS011;4157;48.074;9.952;2023-09-08T15:25:19;7.03;;;4.70;;
8232;SDS011;4157;48.074;9.952;2023-09-08T15:27:47;8.93;;;4.63;;